Disclaimer

Please do not use the information listed here in-flight or in-navigation, as they are not provided to us by the airports but are provided by volunteers, so they might be outdated.

Search


Regions


Airport information page

Radio informations:
AVIGNON TWR - 122.6 MHz
AVIGNON APP - 120.875 MHz

Airport informations:
Latitude: 43° 54' 26.28" N
Longitude: 004° 54' 06.59" E
Elevation: 124 feet - 38 meters
Operating hours: Remarks
Operating agency: Civil government, landing fees and diplomatic clearance may be required
Timezone: UTC+1(+2DT) - Last Sunday in March to last Sunday in October
Fuel: Jet A1, without icing nhibitor.

100/130 MIL Spec, low lead, aviation gasoline (BLUE)

Runway information:
17/35 - 6168 x 148 feet< - >1880 x 45 meters

Recent METARs:
LFMV 201400Z AUTO 13006KT 050V160 9999 FEW035 BKN047 OVC058 11/07 Q1003 BECMG RA OVC005
LFMV 201430Z AUTO 13007KT 100V160 9999 SCT039 BKN048 OVC054 11/07 Q1003 BECMG RA OVC004
LFMV 201500Z AUTO 13008KT 9999 OVC058 11/07 Q1003 NOSIG

Airport on the map: